Time;durP1;ratioP1;P1;durP2;ratioP2;P2;SDS_P1;SDS_P2;PMS_P1;PMS_P2;Temp;Humidity;BMP_temperature;BMP_pressure;BME280_temperature;BME280_humidity;BME280_pressure;Samples;Min_cycle;Max_cycle;Signal;HPM_P1;HPM_P2
2022/10/03 00:02:05;;;;;;;5.85;5.30;;;;;;;;;;5083547;28;20184;-70
2022/10/03 00:05:01;;;;;;;5.88;5.28;;;;;;;;;;5083315;28;20512;-70
2022/10/03 00:07:37;;;;;;;4.93;4.50;;;;;;;;;;5021665;28;20217;-70
2022/10/03 00:10:10;;;;;;;4.93;4.57;;;;;;;;;;5072311;28;20200;-70
2022/10/03 00:12:51;;;;;;;5.03;4.47;;;;;;;;;;5082883;28;20527;-70
2022/10/03 00:15:20;;;;;;;5.10;4.70;;;;;;;;;;5083570;28;20199;-70
2022/10/03 00:17:50;;;;;;;5.50;5.18;;;;;;;;;;5083239;28;20207;-70
2022/10/03 00:20:31;;;;;;;5.40;4.93;;;;;;;;;;5083081;28;20226;-70
2022/10/03 00:23:01;;;;;;;5.68;5.28;;;;;;;;;;5082734;28;20184;-70
2022/10/03 00:25:33;;;;;;;5.78;5.28;;;;;;;;;;5083314;28;20195;-70
2022/10/03 00:28:13;;;;;;;5.40;5.07;;;;;;;;;;5083151;28;20200;-70
2022/10/03 00:30:57;;;;;;;5.45;5.05;;;;;;;;;;5082933;28;20202;-70
2022/10/03 00:33:29;;;;;;;5.88;5.47;;;;;;;;;;5082668;28;20515;-70
2022/10/03 00:36:02;;;;;;;7.22;6.53;;;;;;;;;;5083120;28;20200;-70
2022/10/03 00:38:53;;;;;;;6.90;6.30;;;;;;;;;;5083136;28;20187;-70
2022/10/03 00:41:27;;;;;;;7.40;6.65;;;;;;;;;;5067279;28;20369;-70
2022/10/03 00:44:24;;;;;;;9.45;7.45;;;;;;;;;;5082436;28;20514;-70
2022/10/03 00:47:03;;;;;;;9.07;8.25;;;;;;;;;;5082939;28;20198;-70
2022/10/03 00:49:58;;;;;;;7.97;7.35;;;;;;;;;;5082895;28;20468;-70
2022/10/03 00:52:35;;;;;;;9.55;8.23;;;;;;;;;;5082674;28;20483;-71
2022/10/03 00:55:08;;;;;;;8.50;7.60;;;;;;;;;;5082669;28;20386;-71
2022/10/03 00:57:43;;;;;;;9.05;8.05;;;;;;;;;;5082838;28;20414;-71
2022/10/03 01:00:15;;;;;;;8.75;8.05;;;;;;;;;;5082277;28;20208;-71
2022/10/03 01:02:53;;;;;;;8.52;7.78;;;;;;;;;;5082272;28;20196;-71
2022/10/03 01:05:25;;;;;;;9.13;7.90;;;;;;;;;;5082204;28;20222;-71
2022/10/03 01:08:04;;;;;;;8.73;7.80;;;;;;;;;;5082469;28;20196;-71
2022/10/03 01:10:35;;;;;;;8.23;7.45;;;;;;;;;;5082833;28;20189;-71
2022/10/03 01:13:10;;;;;;;7.80;7.20;;;;;;;;;;5082273;28;20185;-71
2022/10/03 01:15:42;;;;;;;7.63;7.00;;;;;;;;;;5082429;28;20267;-71
2022/10/03 01:18:14;;;;;;;7.68;7.00;;;;;;;;;;5082140;28;20550;-71
2022/10/03 01:20:45;;;;;;;8.23;7.53;;;;;;;;;;5082136;28;20223;-71
2022/10/03 01:23:25;;;;;;;8.05;7.45;;;;;;;;;;5082143;28;20203;-71
2022/10/03 01:25:53;;;;;;;7.78;7.22;;;;;;;;;;5082162;28;20184;-69
2022/10/03 01:31:16;;;;;;;8.05;7.35;;;;;;;;;;5082368;28;20207;-71
2022/10/03 01:33:46;;;;;;;8.07;7.40;;;;;;;;;;5082237;28;20511;-70
2022/10/03 01:36:18;;;;;;;9.23;8.45;;;;;;;;;;5082670;28;20502;-70
2022/10/03 01:38:47;;;;;;;8.70;7.80;;;;;;;;;;5082151;28;20242;-70
2022/10/03 01:41:21;;;;;;;9.73;8.05;;;;;;;;;;5082249;28;20226;-69
2022/10/03 01:43:51;;;;;;;8.57;7.88;;;;;;;;;;5082248;28;20438;-70
2022/10/03 01:46:21;;;;;;;10.13;9.23;;;;;;;;;;5082428;28;20386;-68
2022/10/03 01:48:51;;;;;;;9.10;8.30;;;;;;;;;;5082068;28;20230;-69
2022/10/03 01:51:21;;;;;;;10.63;8.70;;;;;;;;;;5082148;28;20522;-68
2022/10/03 01:53:57;;;;;;;9.85;8.85;;;;;;;;;;5081848;28;20212;-68
2022/10/03 01:56:27;;;;;;;9.30;8.50;;;;;;;;;;5081964;28;20184;-68
2022/10/03 01:58:58;;;;;;;8.82;8.02;;;;;;;;;;5081964;28;20196;-68
2022/10/03 02:01:29;;;;;;;9.80;9.00;;;;;;;;;;5081959;28;20516;-68
2022/10/03 02:04:00;;;;;;;9.68;8.30;;;;;;;;;;5081554;28;20177;-68
2022/10/03 02:06:32;;;;;;;10.30;9.15;;;;;;;;;;5082222;28;20266;-68
2022/10/03 02:09:02;;;;;;;10.45;8.98;;;;;;;;;;5081844;28;20196;-68
2022/10/03 02:11:31;;;;;;;8.77;7.97;;;;;;;;;;5081768;28;20237;-68
2022/10/03 02:14:07;;;;;;;10.57;9.50;;;;;;;;;;5081572;28;20204;-71
2022/10/03 02:16:38;;;;;;;9.25;7.82;;;;;;;;;;5081685;28;20196;-71
2022/10/03 02:19:06;;;;;;;10.45;8.43;;;;;;;;;;5081918;28;20192;-71
2022/10/03 02:21:33;;;;;;;10.25;9.35;;;;;;;;;;5081623;28;20207;-71
2022/10/03 02:24:20;;;;;;;10.68;9.77;;;;;;;;;;5081692;28;20380;-71
2022/10/03 02:26:57;;;;;;;11.18;10.02;;;;;;;;;;5081819;28;20252;-71
2022/10/03 02:29:37;;;;;;;11.20;10.10;;;;;;;;;;5083631;28;20214;-71
2022/10/03 02:32:10;;;;;;;13.98;10.82;;;;;;;;;;5085265;28;20196;-71
2022/10/03 02:34:52;;;;;;;10.70;9.70;;;;;;;;;;5085466;28;20465;-71
2022/10/03 02:37:37;;;;;;;12.32;10.05;;;;;;;;;;5085228;28;20196;-71
2022/10/03 02:40:21;;;;;;;11.23;9.55;;;;;;;;;;5085337;28;20291;-71
2022/10/03 02:43:06;;;;;;;13.60;9.40;;;;;;;;;;5084876;28;20201;-71
2022/10/03 02:45:51;;;;;;;11.77;9.40;;;;;;;;;;5084862;28;20507;-71
2022/10/03 02:48:42;;;;;;;11.05;9.85;;;;;;;;;;5085248;28;20214;-71
2022/10/03 02:51:26;;;;;;;11.05;9.63;;;;;;;;;;5069811;28;20197;-71
2022/10/03 02:54:02;;;;;;;10.05;9.15;;;;;;;;;;5084609;28;20200;-71
2022/10/03 02:56:43;;;;;;;10.23;9.30;;;;;;;;;;5085269;28;20526;-70
2022/10/03 02:59:24;;;;;;;11.43;10.18;;;;;;;;;;5082385;28;20266;-69
2022/10/03 03:02:06;;;;;;;10.52;9.45;;;;;;;;;;5084750;28;20218;-69
2022/10/03 03:04:47;;;;;;;9.75;8.85;;;;;;;;;;5084460;28;20203;-69
2022/10/03 03:07:29;;;;;;;11.23;10.07;;;;;;;;;;5085099;28;20224;-71
2022/10/03 03:10:11;;;;;;;9.63;8.88;;;;;;;;;;5085095;28;20181;-71
2022/10/03 03:12:56;;;;;;;9.98;8.93;;;;;;;;;;5084742;28;20191;-71
2022/10/03 03:15:58;;;;;;;9.90;8.93;;;;;;;;;;5074618;28;20508;-71
2022/10/03 03:18:29;;;;;;;9.45;8.65;;;;;;;;;;5084656;28;20192;-71
2022/10/03 03:21:05;;;;;;;8.82;8.02;;;;;;;;;;5084637;28;20224;-71
2022/10/03 03:23:42;;;;;;;9.63;8.77;;;;;;;;;;5084197;28;20203;-71
2022/10/03 03:26:22;;;;;;;9.82;8.68;;;;;;;;;;5084636;28;20196;-71
2022/10/03 03:28:53;;;;;;;10.35;8.90;;;;;;;;;;5084368;28;20203;-71
2022/10/03 03:31:22;;;;;;;10.82;9.27;;;;;;;;;;5084582;28;20184;-71
2022/10/03 03:33:53;;;;;;;9.98;9.07;;;;;;;;;;5084501;28;20197;-71
2022/10/03 03:36:24;;;;;;;10.18;9.13;;;;;;;;;;5084517;28;20256;-71
2022/10/03 03:38:57;;;;;;;10.32;9.23;;;;;;;;;;5084270;28;20431;-71
2022/10/03 03:41:31;;;;;;;10.48;9.48;;;;;;;;;;5083978;28;20227;-71
2022/10/03 03:44:08;;;;;;;12.52;10.32;;;;;;;;;;5083743;28;20276;-71
2022/10/03 03:46:44;;;;;;;13.32;10.13;;;;;;;;;;5083827;28;20393;-71
2022/10/03 03:49:21;;;;;;;12.02;10.38;;;;;;;;;;5084310;28;20191;-70
2022/10/03 03:51:56;;;;;;;11.52;10.07;;;;;;;;;;5084072;28;20191;-70
2022/10/03 03:54:37;;;;;;;11.40;10.38;;;;;;;;;;5083713;28;20184;-70
2022/10/03 03:57:22;;;;;;;12.27;11.18;;;;;;;;;;5083927;28;20197;-69
2022/10/03 04:00:04;;;;;;;15.32;11.90;;;;;;;;;;5053654;28;20212;-69
2022/10/03 04:02:38;;;;;;;12.73;11.48;;;;;;;;;;5083473;28;20545;-68
2022/10/03 04:05:11;;;;;;;14.23;12.68;;;;;;;;;;5083496;28;20217;-67
2022/10/03 04:07:47;;;;;;;15.23;11.98;;;;;;;;;;5083501;28;20246;-67
2022/10/03 04:10:17;;;;;;;15.43;13.85;;;;;;;;;;5083834;28;20230;-70
2022/10/03 04:12:57;;;;;;;14.35;12.95;;;;;;;;;;5083612;28;20208;-70
2022/10/03 04:15:50;;;;;;;14.55;12.48;;;;;;;;;;5083466;28;20259;-69
2022/10/03 04:21:32;;;;;;;13.45;11.85;;;;;;;;;;5083265;28;20293;-69
2022/10/03 04:24:07;;;;;;;13.70;12.27;;;;;;;;;;5082834;28;20193;-69
2022/10/03 04:26:41;;;;;;;15.27;13.15;;;;;;;;;;5083217;28;20194;-69
2022/10/03 04:29:28;;;;;;;17.65;12.88;;;;;;;;;;5083200;28;20527;-69
2022/10/03 04:32:01;;;;;;;13.68;11.85;;;;;;;;;;5083169;28;20227;-70
2022/10/03 04:34:37;;;;;;;18.60;11.85;;;;;;;;;;5082793;28;20504;-70
2022/10/03 04:37:23;;;;;;;13.38;11.95;;;;;;;;;;5083214;28;20196;-70
2022/10/03 04:39:55;;;;;;;12.80;11.50;;;;;;;;;;5082989;28;20263;-70
2022/10/03 04:42:27;;;;;;;11.88;10.77;;;;;;;;;;5082628;28;20211;-70
2022/10/03 04:45:04;;;;;;;12.48;11.23;;;;;;;;;;5082903;28;20204;-70
2022/10/03 04:47:35;;;;;;;12.32;10.75;;;;;;;;;;5082868;28;20202;-70
2022/10/03 04:50:09;;;;;;;14.23;12.32;;;;;;;;;;5082838;28;20226;-69
2022/10/03 04:52:40;;;;;;;13.98;12.50;;;;;;;;;;5081714;28;20264;-68
2022/10/03 04:55:15;;;;;;;13.68;12.35;;;;;;;;;;5082789;28;20188;-68
2022/10/03 04:57:44;;;;;;;17.20;12.95;;;;;;;;;;5082702;28;20196;-68
2022/10/03 05:00:20;;;;;;;14.73;11.55;;;;;;;;;;5082652;28;20202;-68
2022/10/03 05:02:52;;;;;;;15.35;12.55;;;;;;;;;;5082647;28;20211;-70
2022/10/03 05:05:23;;;;;;;15.10;13.50;;;;;;;;;;5082241;28;20216;-70
2022/10/03 05:07:52;;;;;;;15.73;12.20;;;;;;;;;;5082768;28;20480;-70
2022/10/03 05:10:26;;;;;;;12.75;11.45;;;;;;;;;;5082444;28;20263;-70
2022/10/03 05:12:57;;;;;;;14.30;12.02;;;;;;;;;;5082086;28;20234;-69
2022/10/03 05:15:26;;;;;;;16.88;12.27;;;;;;;;;;5082245;28;20192;-69
2022/10/03 05:18:00;;;;;;;13.63;12.23;;;;;;;;;;5082128;28;20210;-69
2022/10/03 05:20:37;;;;;;;15.02;12.52;;;;;;;;;;5082191;28;20224;-70
2022/10/03 05:23:12;;;;;;;14.98;11.65;;;;;;;;;;5082350;28;20184;-70
2022/10/03 05:25:44;;;;;;;15.18;11.82;;;;;;;;;;5082348;28;20192;-70
2022/10/03 05:28:15;;;;;;;15.95;11.73;;;;;;;;;;5082153;28;20191;-69
2022/10/03 05:30:43;;;;;;;13.98;12.38;;;;;;;;;;5082210;28;20211;-69
2022/10/03 05:33:15;;;;;;;14.98;12.57;;;;;;;;;;5082140;28;20197;-69
2022/10/03 05:35:49;;;;;;;13.75;12.40;;;;;;;;;;5082036;28;20211;-68
2022/10/03 05:38:32;;;;;;;14.63;13.10;;;;;;;;;;5081941;28;20263;-68
2022/10/03 05:41:04;;;;;;;13.48;12.13;;;;;;;;;;5082133;28;20252;-68
2022/10/03 05:43:43;;;;;;;16.13;13.05;;;;;;;;;;5081954;28;20421;-70
2022/10/03 05:46:16;;;;;;;14.07;11.82;;;;;;;;;;5082184;28;20184;-70
2022/10/03 05:48:47;;;;;;;13.68;11.52;;;;;;;;;;5082103;28;20196;-70
2022/10/03 05:51:23;;;;;;;11.02;9.93;;;;;;;;;;5081782;28;20192;-70
2022/10/03 05:54:04;;;;;;;14.98;13.02;;;;;;;;;;5082063;28;20258;-70
2022/10/03 05:56:42;;;;;;;12.15;10.88;;;;;;;;;;5082189;28;20193;-70
2022/10/03 05:59:22;;;;;;;13.27;12.07;;;;;;;;;;5081825;28;20207;-70
2022/10/03 06:01:58;;;;;;;12.82;11.43;;;;;;;;;;5082022;28;20268;-71
2022/10/03 06:04:46;;;;;;;13.70;12.27;;;;;;;;;;5085612;28;20184;-70
2022/10/03 06:07:18;;;;;;;15.50;12.00;;;;;;;;;;5085906;28;20303;-69
2022/10/03 06:10:03;;;;;;;11.23;9.82;;;;;;;;;;5085678;28;20261;-62
2022/10/03 06:12:34;;;;;;;14.32;11.35;;;;;;;;;;5085521;28;20207;-62
2022/10/03 06:15:16;;;;;;;14.77;11.82;;;;;;;;;;5079773;28;20208;-61
2022/10/03 06:17:56;;;;;;;13.32;11.32;;;;;;;;;;5073319;28;20209;-65
2022/10/03 06:20:37;;;;;;;13.38;11.98;;;;;;;;;;5071717;28;20218;-64
2022/10/03 06:23:24;;;;;;;19.73;12.02;;;;;;;;;;5057186;28;20209;-64
2022/10/03 06:25:59;;;;;;;13.07;11.88;;;;;;;;;;5059576;28;20247;-63
2022/10/03 06:28:50;;;;;;;12.80;11.63;;;;;;;;;;5059071;28;20201;-64
2022/10/03 06:31:32;;;;;;;12.20;11.10;;;;;;;;;;5003165;28;20207;-64
2022/10/03 06:34:19;;;;;;;11.70;10.70;;;;;;;;;;5069421;28;20426;-64
2022/10/03 06:37:03;;;;;;;11.18;10.05;;;;;;;;;;5073901;28;20545;-60
2022/10/03 06:39:48;;;;;;;12.05;10.63;;;;;;;;;;5056101;28;20209;-60
2022/10/03 06:42:25;;;;;;;12.27;11.07;;;;;;;;;;5059476;28;20598;-60
2022/10/03 06:45:09;;;;;;;15.77;10.75;;;;;;;;;;5059835;28;20213;-60
2022/10/03 06:47:46;;;;;;;14.57;11.80;;;;;;;;;;5028716;28;20217;-60
2022/10/03 06:50:18;;;;;;;14.30;12.05;;;;;;;;;;5059406;28;20531;-63
2022/10/03 06:52:54;;;;;;;13.77;12.38;;;;;;;;;;5059325;28;20209;-63
2022/10/03 06:55:39;;;;;;;19.60;14.38;;;;;;;;;;5058950;28;20440;-63
2022/10/03 06:58:18;;;;;;;23.20;14.85;;;;;;;;;;5058869;28;20213;-63
2022/10/03 07:00:52;;;;;;;23.67;15.18;;;;;;;;;;5059000;28;20209;-63
2022/10/03 07:03:34;;;;;;;24.35;17.17;;;;;;;;;;5058916;28;20204;-63
2022/10/03 07:06:11;;;;;;;25.25;17.60;;;;;;;;;;5058513;28;20292;-63
2022/10/03 07:08:46;;;;;;;35.40;17.45;;;;;;;;;;5058747;28;20215;-62
2022/10/03 07:11:28;;;;;;;20.70;15.80;;;;;;;;;;5074390;28;20202;-62
2022/10/03 07:14:15;;;;;;;23.50;16.30;;;;;;;;;;5078134;28;20216;-61
2022/10/03 07:16:56;;;;;;;29.20;17.00;;;;;;;;;;5078408;28;20283;-62
2022/10/03 07:19:42;;;;;;;18.42;15.73;;;;;;;;;;5079070;28;20208;-62
2022/10/03 07:22:24;;;;;;;30.05;16.23;;;;;;;;;;5078771;28;20224;-61
2022/10/03 07:25:08;;;;;;;19.55;15.80;;;;;;;;;;5079303;28;20208;-61
2022/10/03 07:27:44;;;;;;;22.27;16.65;;;;;;;;;;5078359;28;20215;-62
2022/10/03 07:30:16;;;;;;;23.80;13.13;;;;;;;;;;5078813;28;20287;-62
2022/10/03 07:33:00;;;;;;;18.35;12.68;;;;;;;;;;5080263;28;20203;-60
2022/10/03 07:41:19;;;;;;;20.55;13.75;;;;;;;;;;5084143;28;20269;-62
2022/10/03 07:44:00;;;;;;;19.90;14.18;;;;;;;;;;5084310;28;20255;-62
2022/10/03 07:46:53;;;;;;;19.17;13.48;;;;;;;;;;5071276;28;20196;-62
2022/10/03 07:49:29;;;;;;;20.25;13.70;;;;;;;;;;5084371;28;20259;-60
2022/10/03 07:52:06;;;;;;;15.75;12.15;;;;;;;;;;5083925;28;20202;-65
2022/10/03 07:54:39;;;;;;;16.23;12.50;;;;;;;;;;5067013;28;20581;-65
2022/10/03 07:57:20;;;;;;;22.77;13.70;;;;;;;;;;5063678;28;20197;-65
2022/10/03 07:59:53;;;;;;;20.13;13.65;;;;;;;;;;5063621;28;20388;-65
2022/10/03 08:02:31;;;;;;;22.25;14.25;;;;;;;;;;5063467;28;20251;-65
2022/10/03 08:05:17;;;;;;;20.05;13.20;;;;;;;;;;5062163;28;20271;-65
2022/10/03 08:07:59;;;;;;;15.32;11.85;;;;;;;;;;5063790;28;20197;-61
2022/10/03 08:10:44;;;;;;;21.05;13.38;;;;;;;;;;5041266;28;20268;-61
2022/10/03 08:13:24;;;;;;;22.60;12.15;;;;;;;;;;5063339;28;20193;-61
2022/10/03 08:15:59;;;;;;;19.08;12.45;;;;;;;;;;5063536;28;20208;-64
2022/10/03 08:18:41;;;;;;;21.58;11.70;;;;;;;;;;5063653;28;20197;-63
2022/10/03 08:21:18;;;;;;;16.58;11.80;;;;;;;;;;5063577;28;20239;-64
2022/10/03 08:24:04;;;;;;;17.13;11.48;;;;;;;;;;5063130;28;20202;-64
2022/10/03 08:26:54;;;;;;;16.08;12.38;;;;;;;;;;5063565;28;20231;-65
2022/10/03 08:29:29;;;;;;;16.20;12.70;;;;;;;;;;5053018;28;20205;-65
2022/10/03 08:32:13;;;;;;;23.73;12.68;;;;;;;;;;5064504;28;20179;-65
2022/10/03 08:34:55;;;;;;;15.90;11.30;;;;;;;;;;5063621;28;20197;-65
2022/10/03 08:37:38;;;;;;;15.15;11.82;;;;;;;;;;5063129;28;20203;-65
2022/10/03 08:40:20;;;;;;;15.88;10.88;;;;;;;;;;5062967;28;20221;-65
2022/10/03 08:43:00;;;;;;;12.68;9.02;;;;;;;;;;5063122;28;20225;-65
2022/10/03 08:45:59;;;;;;;13.32;9.88;;;;;;;;;;5063273;28;20501;-65
2022/10/03 08:48:55;;;;;;;14.63;9.85;;;;;;;;;;5021085;28;20202;-65
2022/10/03 08:51:39;;;;;;;12.38;6.72;;;;;;;;;;4943407;29;20204;-62
2022/10/03 08:54:13;;;;;;;12.75;7.63;;;;;;;;;;5042702;28;20242;-62
2022/10/03 08:56:57;;;;;;;12.65;7.25;;;;;;;;;;5062709;28;20196;-62
2022/10/03 08:59:46;;;;;;;12.30;8.15;;;;;;;;;;5063320;28;20192;-65
2022/10/03 09:02:30;;;;;;;10.32;6.63;;;;;;;;;;5062610;28;20213;-65
2022/10/03 09:05:03;;;;;;;11.00;7.38;;;;;;;;;;5062593;28;20516;-65
2022/10/03 09:07:46;;;;;;;12.27;6.85;;;;;;;;;;5062863;28;20194;-65
2022/10/03 09:10:27;;;;;;;11.48;8.02;;;;;;;;;;5062854;28;20243;-65
2022/10/03 09:13:14;;;;;;;12.00;8.30;;;;;;;;;;5062523;28;20461;-65
2022/10/03 09:16:03;;;;;;;8.52;6.70;;;;;;;;;;5058720;28;20197;-62
2022/10/03 09:18:41;;;;;;;12.88;5.13;;;;;;;;;;5062456;28;20229;-62
2022/10/03 09:21:26;;;;;;;9.57;5.20;;;;;;;;;;5062397;28;20397;-62
2022/10/03 09:23:59;;;;;;;14.82;6.63;;;;;;;;;;5061952;28;20197;-62
2022/10/03 09:26:43;;;;;;;15.98;7.75;;;;;;;;;;5062497;28;20208;-62
2022/10/03 09:29:20;;;;;;;16.63;6.55;;;;;;;;;;5062207;28;20215;-62
2022/10/03 09:32:05;;;;;;;16.92;7.53;;;;;;;;;;5062210;28;20501;-62
2022/10/03 09:34:59;;;;;;;17.33;8.48;;;;;;;;;;5062068;28;20211;-62
2022/10/03 09:37:37;;;;;;;12.98;8.23;;;;;;;;;;5061701;28;20197;-62
2022/10/03 09:40:30;;;;;;;16.27;7.88;;;;;;;;;;5062166;28;20251;-62
2022/10/03 09:43:21;;;;;;;13.88;7.95;;;;;;;;;;5062012;28;20208;-63
2022/10/03 09:46:14;;;;;;;18.20;8.68;;;;;;;;;;5062358;28;20189;-63
2022/10/03 09:48:56;;;;;;;15.05;8.73;;;;;;;;;;5037802;28;20228;-63
2022/10/03 09:51:33;;;;;;;12.85;8.07;;;;;;;;;;5062187;28;20530;-63
2022/10/03 09:54:17;;;;;;;10.25;7.78;;;;;;;;;;5061658;28;20185;-64
2022/10/03 09:57:02;;;;;;;15.55;9.95;;;;;;;;;;5055058;28;20197;-63
2022/10/03 09:59:36;;;;;;;11.18;8.60;;;;;;;;;;5061824;28;20196;-64
2022/10/03 10:02:09;;;;;;;11.48;7.60;;;;;;;;;;5061780;28;20204;-60
2022/10/03 10:04:51;;;;;;;13.95;8.40;;;;;;;;;;5061756;28;20223;-60
2022/10/03 10:07:45;;;;;;;16.02;8.25;;;;;;;;;;5062325;28;20185;-60
2022/10/03 10:10:30;;;;;;;11.20;6.93;;;;;;;;;;5061958;28;20477;-60
2022/10/03 10:13:12;;;;;;;10.82;6.78;;;;;;;;;;5061649;28;20367;-60
2022/10/03 10:16:07;;;;;;;11.57;7.70;;;;;;;;;;5061633;28;20197;-60
2022/10/03 10:18:51;;;;;;;13.43;9.45;;;;;;;;;;5061856;28;20241;-60
2022/10/03 10:21:35;;;;;;;11.23;7.90;;;;;;;;;;5054642;28;20389;-60
2022/10/03 10:24:14;;;;;;;14.60;8.10;;;;;;;;;;5061429;28;20196;-60
2022/10/03 10:26:52;;;;;;;17.60;8.57;;;;;;;;;;5061764;28;20404;-60
2022/10/03 10:29:34;;;;;;;12.55;7.13;;;;;;;;;;5061695;28;20394;-60
2022/10/03 10:32:27;;;;;;;10.98;6.35;;;;;;;;;;5061481;28;20193;-60
2022/10/03 10:35:16;;;;;;;14.95;6.70;;;;;;;;;;5061450;28;20508;-60
2022/10/03 10:38:06;;;;;;;11.77;5.97;;;;;;;;;;5061740;28;20204;-60
2022/10/03 10:40:54;;;;;;;8.95;5.72;;;;;;;;;;5061529;28;20189;-60
2022/10/03 10:43:39;;;;;;;14.90;6.57;;;;;;;;;;5057527;28;20232;-60
2022/10/03 10:46:17;;;;;;;9.20;5.00;;;;;;;;;;5061709;28;20197;-60
2022/10/03 10:49:10;;;;;;;11.45;5.47;;;;;;;;;;5061582;28;20197;-60
2022/10/03 10:51:51;;;;;;;10.63;5.10;;;;;;;;;;5064936;28;20185;-60
2022/10/03 10:54:42;;;;;;;11.38;5.30;;;;;;;;;;5063037;28;20197;-60
2022/10/03 10:57:15;;;;;;;8.73;4.70;;;;;;;;;;5065013;28;20369;-60
2022/10/03 11:00:06;;;;;;;13.38;4.93;;;;;;;;;;5065222;28;20197;-60
2022/10/03 11:02:54;;;;;;;7.75;4.28;;;;;;;;;;5064775;28;20216;-60
2022/10/03 11:05:37;;;;;;;8.65;3.47;;;;;;;;;;5064573;28;20217;-61
2022/10/03 11:08:26;;;;;;;9.55;4.85;;;;;;;;;;5064672;28;20197;-60
2022/10/03 11:11:04;;;;;;;9.52;3.85;;;;;;;;;;5064869;28;20201;-60
2022/10/03 11:13:58;;;;;;;8.73;4.13;;;;;;;;;;5064488;28;20501;-60
2022/10/03 11:16:44;;;;;;;8.45;4.43;;;;;;;;;;5040302;28;20197;-60
2022/10/03 11:19:44;;;;;;;13.93;4.45;;;;;;;;;;5064668;28;20442;-60
2022/10/03 11:22:34;;;;;;;8.90;4.50;;;;;;;;;;5022447;28;20236;-60
2022/10/03 11:25:25;;;;;;;6.45;4.43;;;;;;;;;;5022794;28;20198;-59
2022/10/03 11:28:26;;;;;;;8.18;3.85;;;;;;;;;;5054654;28;20235;-60
2022/10/03 11:31:26;;;;;;;9.60;4.25;;;;;;;;;;5064291;28;20197;-59
2022/10/03 11:34:07;;;;;;;9.18;3.75;;;;;;;;;;5064336;28;20212;-60
2022/10/03 11:36:53;;;;;;;11.60;4.25;;;;;;;;;;5064351;28;20220;-60
2022/10/03 11:39:22;;;;;;;10.45;4.90;;;;;;;;;;5064043;28;20396;-60
2022/10/03 11:41:56;;;;;;;12.07;3.67;;;;;;;;;;5064222;28;20197;-60
2022/10/03 11:44:24;;;;;;;8.93;3.45;;;;;;;;;;5063893;28;20185;-60
2022/10/03 11:46:58;;;;;;;5.57;3.45;;;;;;;;;;5064032;28;20411;-60
2022/10/03 11:49:42;;;;;;;10.68;3.45;;;;;;;;;;5063886;28;20532;-60
2022/10/03 11:52:17;;;;;;;10.85;3.65;;;;;;;;;;5063681;28;20205;-60
2022/10/03 11:54:45;;;;;;;5.97;3.88;;;;;;;;;;5063910;28;20184;-60
2022/10/03 11:57:16;;;;;;;10.75;3.95;;;;;;;;;;5063971;28;20203;-61
2022/10/03 11:59:54;;;;;;;6.93;3.72;;;;;;;;;;5063817;28;20193;-60
2022/10/03 12:02:33;;;;;;;12.40;4.18;;;;;;;;;;5063518;28;20204;-60
2022/10/03 12:05:01;;;;;;;12.35;4.03;;;;;;;;;;5063560;28;20231;-60
2022/10/03 12:10:38;;;;;;;14.68;4.32;;;;;;;;;;5063639;28;20257;-60
2022/10/03 12:13:13;;;;;;;7.55;3.92;;;;;;;;;;5063561;28;20215;-60
2022/10/03 12:15:41;;;;;;;10.73;4.05;;;;;;;;;;5063740;28;20185;-60
2022/10/03 12:18:12;;;;;;;9.60;3.30;;;;;;;;;;5063403;28;20203;-60
2022/10/03 12:21:02;;;;;;;6.53;3.28;;;;;;;;;;5063375;28;20197;-60
2022/10/03 12:23:36;;;;;;;13.85;3.25;;;;;;;;;;5063355;28;20209;-59
2022/10/03 12:26:03;;;;;;;4.07;3.03;;;;;;;;;;5063456;28;20185;-59
2022/10/03 12:28:35;;;;;;;9.88;3.00;;;;;;;;;;5063427;28;20224;-60
2022/10/03 12:31:09;;;;;;;10.07;2.85;;;;;;;;;;5063279;28;20220;-61
2022/10/03 12:33:48;;;;;;;6.47;2.92;;;;;;;;;;5062770;28;20496;-60
2022/10/03 12:36:15;;;;;;;4.72;2.13;;;;;;;;;;5063338;28;20189;-60
2022/10/03 12:38:53;;;;;;;6.95;2.85;;;;;;;;;;5063107;28;20391;-60
2022/10/03 12:41:24;;;;;;;6.35;3.20;;;;;;;;;;5062958;28;20191;-60
2022/10/03 12:43:56;;;;;;;7.45;3.75;;;;;;;;;;5062739;28;20209;-61
2022/10/03 12:46:30;;;;;;;7.35;3.00;;;;;;;;;;5063151;28;20452;-60
2022/10/03 12:48:59;;;;;;;6.25;2.90;;;;;;;;;;5063038;28;20192;-60
2022/10/03 12:51:34;;;;;;;6.93;3.33;;;;;;;;;;5062976;28;20212;-61
2022/10/03 12:54:07;;;;;;;5.38;2.78;;;;;;;;;;5062501;28;20256;-60
2022/10/03 12:56:40;;;;;;;9.05;2.90;;;;;;;;;;5062711;28;20197;-60
2022/10/03 12:59:17;;;;;;;11.43;3.15;;;;;;;;;;5062664;28;20204;-60
2022/10/03 13:01:55;;;;;;;8.07;2.78;;;;;;;;;;5063164;28;20192;-61
2022/10/03 13:04:25;;;;;;;6.75;2.53;;;;;;;;;;5062189;28;20211;-61
2022/10/03 13:06:58;;;;;;;4.82;2.70;;;;;;;;;;5062369;28;20197;-60
2022/10/03 13:09:32;;;;;;;6.05;2.53;;;;;;;;;;5062693;28;20266;-60
2022/10/03 13:12:02;;;;;;;6.18;2.80;;;;;;;;;;5061994;28;20201;-60
2022/10/03 13:14:40;;;;;;;6.47;3.30;;;;;;;;;;5062532;28;20243;-60
2022/10/03 13:17:11;;;;;;;5.65;3.30;;;;;;;;;;5062305;28;20205;-60
2022/10/03 13:19:43;;;;;;;5.38;2.80;;;;;;;;;;5062282;28;20243;-60
2022/10/03 13:22:18;;;;;;;5.55;2.83;;;;;;;;;;5062563;28;20199;-60
2022/10/03 13:24:49;;;;;;;4.40;2.38;;;;;;;;;;5062566;28;20246;-60
2022/10/03 13:27:21;;;;;;;6.35;2.53;;;;;;;;;;5062240;28;20224;-60
2022/10/03 13:29:52;;;;;;;6.70;2.47;;;;;;;;;;5062057;28;20213;-60
2022/10/03 13:32:25;;;;;;;7.18;2.67;;;;;;;;;;5062132;28;20223;-61
2022/10/03 13:34:57;;;;;;;5.97;2.28;;;;;;;;;;5062275;28;20201;-60
2022/10/03 13:37:28;;;;;;;4.57;2.50;;;;;;;;;;5062440;28;20499;-61
2022/10/03 13:40:01;;;;;;;5.80;2.15;;;;;;;;;;5062335;28;20173;-60
2022/10/03 13:42:32;;;;;;;6.65;2.53;;;;;;;;;;5061987;28;20635;-60
2022/10/03 13:45:02;;;;;;;7.25;2.33;;;;;;;;;;5062161;28;20212;-60
2022/10/03 13:47:42;;;;;;;7.75;2.67;;;;;;;;;;5062233;28;20407;-60
2022/10/03 13:50:15;;;;;;;4.68;2.45;;;;;;;;;;5061916;28;20189;-61
2022/10/03 13:52:44;;;;;;;6.72;2.30;;;;;;;;;;5061922;28;20383;-61
2022/10/03 13:55:28;;;;;;;5.97;2.28;;;;;;;;;;5062026;28;20204;-60
2022/10/03 13:58:02;;;;;;;5.72;2.63;;;;;;;;;;5062171;28;20235;-61
2022/10/03 14:00:37;;;;;;;6.82;2.20;;;;;;;;;;5061846;28;20219;-60
2022/10/03 14:03:12;;;;;;;5.28;2.28;;;;;;;;;;5061655;28;20229;-61
2022/10/03 14:06:05;;;;;;;3.75;2.30;;;;;;;;;;5061975;28;20323;-61
2022/10/03 14:08:42;;;;;;;4.57;2.40;;;;;;;;;;5062092;28;20180;-60
2022/10/03 14:11:22;;;;;;;4.10;2.58;;;;;;;;;;5062261;28;20476;-59
2022/10/03 14:13:54;;;;;;;5.25;2.17;;;;;;;;;;5061513;28;20189;-60
2022/10/03 14:16:25;;;;;;;9.13;2.42;;;;;;;;;;5061924;28;20268;-60
2022/10/03 14:18:54;;;;;;;7.45;2.53;;;;;;;;;;5061787;28;20197;-60
2022/10/03 14:21:38;;;;;;;4.82;2.38;;;;;;;;;;5061830;28;20197;-60
2022/10/03 14:24:08;;;;;;;6.15;2.40;;;;;;;;;;5063205;28;20223;-60
2022/10/03 14:26:38;;;;;;;3.90;2.28;;;;;;;;;;5065883;28;20193;-60
2022/10/03 14:29:08;;;;;;;4.10;2.22;;;;;;;;;;5065627;28;20408;-60
2022/10/03 14:31:38;;;;;;;8.02;2.53;;;;;;;;;;5065646;28;20185;-60
2022/10/03 14:34:10;;;;;;;4.40;2.20;;;;;;;;;;5065047;28;20215;-60
2022/10/03 14:36:38;;;;;;;5.40;2.22;;;;;;;;;;5065547;28;20200;-60
2022/10/03 14:39:14;;;;;;;5.88;2.65;;;;;;;;;;5065170;28;20201;-61
2022/10/03 14:41:45;;;;;;;5.03;2.60;;;;;;;;;;5065450;28;20354;-60
2022/10/03 14:44:14;;;;;;;5.30;2.63;;;;;;;;;;5064900;28;20224;-60
2022/10/03 14:46:44;;;;;;;5.93;2.40;;;;;;;;;;5064795;28;20411;-61
2022/10/03 14:49:16;;;;;;;5.45;2.30;;;;;;;;;;5064660;28;20497;-60
2022/10/03 14:51:47;;;;;;;4.32;2.10;;;;;;;;;;5064736;28;20186;-61
2022/10/03 14:54:18;;;;;;;6.35;2.00;;;;;;;;;;5064441;28;20369;-61
2022/10/03 14:56:45;;;;;;;5.45;2.05;;;;;;;;;;5064689;28;20185;-61
2022/10/03 14:59:12;;;;;;;5.15;2.17;;;;;;;;;;5064477;28;20271;-61
2022/10/03 15:01:46;;;;;;;4.28;1.88;;;;;;;;;;5064398;28;20389;-61
2022/10/03 15:04:17;;;;;;;4.10;1.83;;;;;;;;;;5064036;28;20232;-60
2022/10/03 15:06:53;;;;;;;4.18;1.80;;;;;;;;;;5064492;28;20224;-60
2022/10/03 15:09:21;;;;;;;5.00;1.98;;;;;;;;;;5064165;28;20251;-60
2022/10/03 15:11:49;;;;;;;4.53;1.83;;;;;;;;;;5063908;28;20228;-61
2022/10/03 15:14:16;;;;;;;6.00;2.00;;;;;;;;;;5064840;28;20193;-60
2022/10/03 15:16:45;;;;;;;3.92;1.77;;;;;;;;;;5064880;28;20224;-61
2022/10/03 15:19:16;;;;;;;6.60;2.15;;;;;;;;;;5064992;28;20200;-61
2022/10/03 15:21:44;;;;;;;4.45;2.10;;;;;;;;;;5064451;28;20311;-61
2022/10/03 15:24:17;;;;;;;2.47;1.55;;;;;;;;;;5063413;28;20284;-61
2022/10/03 15:26:47;;;;;;;5.03;2.05;;;;;;;;;;5064066;28;20404;-61
2022/10/03 15:29:15;;;;;;;7.28;2.10;;;;;;;;;;5063690;28;20275;-60
2022/10/03 15:31:44;;;;;;;4.78;2.08;;;;;;;;;;5063667;28;20203;-61
2022/10/03 15:34:15;;;;;;;6.10;2.08;;;;;;;;;;5063404;28;20215;-60
2022/10/03 15:36:42;;;;;;;5.20;2.42;;;;;;;;;;5063094;28;20190;-60
2022/10/03 15:39:16;;;;;;;5.22;2.20;;;;;;;;;;5063817;28;20205;-61
2022/10/03 15:41:49;;;;;;;6.70;1.98;;;;;;;;;;5063665;28;20530;-61
2022/10/03 15:44:18;;;;;;;4.93;2.35;;;;;;;;;;5063168;28;20213;-60
2022/10/03 15:46:46;;;;;;;2.17;1.98;;;;;;;;;;5063406;28;20442;-61